createdAt,value
2023-05-15T00:00:09.788Z,100749.08
2023-05-15T00:01:09.482Z,100743.59
2023-05-15T00:02:09.758Z,100741.2
2023-05-15T00:03:10.396Z,100742.41
2023-05-15T00:04:10.701Z,100741.98
2023-05-15T00:05:11.609Z,100735.2
2023-05-15T00:06:11.353Z,100739.79
2023-05-15T00:07:11.746Z,100739.39
2023-05-15T00:08:12.025Z,100741.02
2023-05-15T00:09:12.497Z,100738.37
2023-05-15T00:10:12.917Z,100737.61
2023-05-15T00:11:13.099Z,100735.92
2023-05-15T00:12:13.657Z,100737.3
2023-05-15T00:13:14.153Z,100736.13
2023-05-15T00:14:14.422Z,100738.42
2023-05-15T00:15:14.797Z,100734.7
2023-05-15T00:16:15.565Z,100732.94
2023-05-15T00:17:15.614Z,100734.03
2023-05-15T00:18:15.943Z,100730.88
2023-05-15T00:19:16.568Z,100730.4
2023-05-15T00:20:16.769Z,100728.12
2023-05-15T00:21:17.303Z,100727.67
2023-05-15T00:22:17.514Z,100728.7
2023-05-15T00:23:17.931Z,100725.64
2023-05-15T00:24:18.319Z,100724.03
2023-05-15T00:25:19.108Z,100726.27
2023-05-15T00:26:19.065Z,100723
2023-05-15T00:27:20.184Z,100724.71
2023-05-15T00:28:20.017Z,100721.7
2023-05-15T00:29:20.216Z,100721.59
2023-05-15T00:30:20.616Z,100716.99
2023-05-15T00:31:21.118Z,100718.36
2023-05-15T00:32:21.323Z,100717.71
2023-05-15T00:33:21.731Z,100717.16
2023-05-15T00:34:22.708Z,100713.98
2023-05-15T00:35:23.087Z,100714.77
2023-05-15T00:36:22.868Z,100715.61
2023-05-15T00:37:24.147Z,100717.58
2023-05-15T00:38:23.588Z,100717.69
2023-05-15T00:39:24.062Z,100722.39
2023-05-15T00:40:25.763Z,100718.7
2023-05-15T00:41:25.620Z,100721.08
2023-05-15T00:42:25.933Z,100719.23
2023-05-15T00:43:26.683Z,100718.59
2023-05-15T00:44:27.807Z,100719.09
2023-05-15T00:45:27.200Z,100720.2
2023-05-15T00:46:28.675Z,100719.95
2023-05-15T00:47:27.305Z,100720.05
2023-05-15T00:48:29.241Z,100719.44
2023-05-15T00:49:29.150Z,100719.34
2023-05-15T00:50:29.471Z,100721.28
2023-05-15T00:51:28.560Z,100716.89
2023-05-15T00:52:30.190Z,100714.66
2023-05-15T00:53:29.445Z,100718.72
2023-05-15T00:54:29.924Z,100724.34
2023-05-15T00:55:31.545Z,100723.21
2023-05-15T00:56:32.073Z,100723.87
2023-05-15T00:57:32.181Z,100720.17
2023-05-15T00:58:32.198Z,100718.22
2023-05-15T00:59:32.903Z,100718.75
2023-05-15T01:00:33.434Z,100723.88
2023-05-15T01:01:32.946Z,100718.66
2023-05-15T01:02:32.759Z,100715.17
2023-05-15T01:03:33.308Z,100715.2
2023-05-15T01:04:33.545Z,100713.84
2023-05-15T01:05:34.175Z,100713.66
2023-05-15T01:06:34.276Z,100713.84
2023-05-15T01:09:42.898Z,100715.39
2023-05-15T01:10:43.119Z,100718.65
2023-05-15T01:11:42.415Z,100713.16
2023-05-15T01:12:43.301Z,100714.22
2023-05-15T01:13:41.955Z,100713.17
2023-05-15T01:14:42.131Z,100714.59
2023-05-15T01:15:43.512Z,100715.76
2023-05-15T01:16:43.171Z,100713.67
2023-05-15T01:17:43.345Z,100716.88
2023-05-15T01:18:43.819Z,100714.84
2023-05-15T01:19:46.345Z,100717.33
2023-05-15T01:31:16.062Z,100716.64
2023-05-15T01:32:24.943Z,100716.12
2023-05-15T01:34:28.315Z,100712.89
2023-05-15T01:37:29.279Z,100707.92
2023-05-15T01:39:35.934Z,100708.66
2023-05-15T01:40:33.883Z,100709.07
2023-05-15T01:42:40.668Z,100707.8
2023-05-15T01:43:42.502Z,100707.05
2023-05-15T01:44:45.225Z,100706.51
2023-05-15T01:45:43.645Z,100705.09
2023-05-15T01:46:51.299Z,100703.79
2023-05-15T01:47:47.871Z,100702.77
2023-05-15T01:48:46.339Z,100701.3
2023-05-15T01:49:48.478Z,100700.19
2023-05-15T01:50:47.432Z,100698.38
2023-05-15T01:51:52.397Z,100697.15
2023-05-15T01:52:54.135Z,100702.12
2023-05-15T01:53:53.852Z,100696.07
2023-05-15T01:54:53.598Z,100696.5
2023-05-15T01:55:53.851Z,100699.33
2023-05-15T01:56:54.216Z,100695.02
2023-05-15T01:57:54.162Z,100692.05
2023-05-15T01:58:55.099Z,100694.24
2023-05-15T01:59:55.455Z,100690.02
2023-05-15T02:00:55.217Z,100689.49
2023-05-15T02:01:56.980Z,100687.17
2023-05-15T02:02:56.655Z,100688.66
2023-05-15T02:03:56.105Z,100690.8
2023-05-15T02:04:57.194Z,100686.78
2023-05-15T02:05:56.578Z,100689.14
2023-05-15T02:06:56.935Z,100687.98
2023-05-15T02:07:57.107Z,100690.19
2023-05-15T02:08:58.857Z,100692.11
2023-05-15T02:09:59.688Z,100685.55
2023-05-15T02:11:00.168Z,100686.62
2023-05-15T02:12:01.089Z,100688.59
2023-05-15T02:12:59.908Z,100687.77
2023-05-15T02:14:00.428Z,100684.02
2023-05-15T02:15:01.262Z,100690.71
2023-05-15T02:15:59.950Z,100687.31
2023-05-15T02:17:00.166Z,100688.8
2023-05-15T02:18:00.670Z,100690.59
2023-05-15T02:19:01.111Z,100689.02
2023-05-15T02:20:01.488Z,100687.64
2023-05-15T02:21:01.808Z,100686.89
2023-05-15T02:22:02.022Z,100685.02
2023-05-15T02:23:02.440Z,100685.75
2023-05-15T02:24:02.688Z,100687.63
2023-05-15T02:25:03.472Z,100687.94
2023-05-15T02:36:33.021Z,100680.78
2023-05-15T02:37:33.857Z,100681.22
2023-05-15T02:39:35.055Z,100682.48
2023-05-15T02:40:36.650Z,100679.59
2023-05-15T02:41:38.286Z,100682.48
2023-05-15T02:42:36.808Z,100677.44
2023-05-15T02:43:36.672Z,100676.58
2023-05-15T02:44:37.326Z,100677.73
2023-05-15T02:45:37.235Z,100679.38
2023-05-15T02:46:38.933Z,100679.26
2023-05-15T02:47:38.328Z,100675.99
2023-05-15T02:48:41.930Z,100680.35
2023-05-15T02:49:40.799Z,100675.58
2023-05-15T02:50:39.785Z,100675.05
2023-05-15T02:51:40.809Z,100680.34
2023-05-15T02:52:40.422Z,100672.8
2023-05-15T02:53:42.104Z,100675.11
2023-05-15T02:54:41.861Z,100679.47
2023-05-15T02:55:41.758Z,100679.98
2023-05-15T02:56:41.990Z,100679.14
2023-05-15T02:57:42.379Z,100681.02
2023-05-15T02:58:43.009Z,100678.56
2023-05-15T02:59:43.424Z,100675.99
2023-05-15T03:00:43.383Z,100674.56
2023-05-15T03:01:43.975Z,100675.87
2023-05-15T03:02:44.300Z,100672.27
2023-05-15T03:03:44.832Z,100672.55
2023-05-15T03:04:45.138Z,100670.8
2023-05-15T03:05:45.516Z,100673.36
2023-05-15T03:06:45.691Z,100674.45
2023-05-15T03:07:46.289Z,100673.18
2023-05-15T03:08:46.655Z,100672.58
2023-05-15T03:09:46.969Z,100673.42
2023-05-15T03:10:47.513Z,100669.61
2023-05-15T03:11:47.807Z,100672.48
2023-05-15T03:12:48.021Z,100670.64
2023-05-15T03:13:48.494Z,100673.44
2023-05-15T03:14:48.790Z,100673.88
2023-05-15T03:15:49.153Z,100672.89
2023-05-15T03:16:49.621Z,100673.23
2023-05-15T03:17:49.927Z,100673.84
2023-05-15T03:18:50.365Z,100670.94
2023-05-15T03:19:50.761Z,100673.16
2023-05-15T03:20:52.838Z,100676.41
2023-05-15T03:21:51.371Z,100678.75
2023-05-15T03:22:51.879Z,100676.95
2023-05-15T03:23:52.192Z,100675.83
2023-05-15T03:24:52.810Z,100676.23
2023-05-15T03:25:53.016Z,100672.44
2023-05-15T03:26:53.318Z,100673.66
2023-05-15T03:27:53.692Z,100671.69
2023-05-15T03:28:55.350Z,100675.32
2023-05-15T03:29:54.890Z,100671.98
2023-05-15T03:30:54.801Z,100674.14
2023-05-15T03:31:55.311Z,100675.83
2023-05-15T03:32:55.712Z,100679.17
2023-05-15T03:33:56.001Z,100673.53
2023-05-15T03:34:56.454Z,100669.06
2023-05-15T03:35:56.731Z,100670.31
2023-05-15T03:36:57.282Z,100669.23
2023-05-15T03:37:57.599Z,100668.53
2023-05-15T03:38:57.971Z,100667.89
2023-05-15T03:39:58.442Z,100667.79
2023-05-15T03:40:58.975Z,100665.35
2023-05-15T03:41:59.210Z,100663.73
2023-05-15T03:42:59.561Z,100659.48
2023-05-15T03:43:59.995Z,100662.92
2023-05-15T03:45:00.606Z,100660.02
2023-05-15T03:46:01.049Z,100661.22
2023-05-15T03:47:01.320Z,100663.34
2023-05-15T03:48:01.641Z,100661.22
2023-05-15T03:49:01.970Z,100662.56
2023-05-15T03:50:02.330Z,100665.95
2023-05-15T03:51:03.012Z,100665.73
2023-05-15T03:52:03.125Z,100668.58
2023-05-15T03:53:03.577Z,100667.78
2023-05-15T03:54:04.365Z,100665.16
2023-05-15T03:55:05.928Z,100662.08
2023-05-15T03:56:05.396Z,100661.8
2023-05-15T03:57:05.721Z,100657.95
2023-05-15T03:58:05.608Z,100654.28
2023-05-15T03:59:06.039Z,100655.52
2023-05-15T04:00:07.549Z,100652.34
2023-05-15T04:01:06.660Z,100657.29
2023-05-15T04:02:07.218Z,100654.48
2023-05-15T04:03:08.655Z,100654.59
2023-05-15T04:04:08.031Z,100648.45
2023-05-15T04:05:09.688Z,100647.34
2023-05-15T04:06:08.586Z,100647.82
2023-05-15T04:07:09.059Z,100644.38
2023-05-15T04:08:09.577Z,100647.64
2023-05-15T04:09:10.008Z,100645.93
2023-05-15T04:10:10.915Z,100643.67
2023-05-15T04:11:11.337Z,100642.66
2023-05-15T04:12:11.191Z,100643.28
2023-05-15T04:13:11.595Z,100640.41
2023-05-15T04:14:11.926Z,100640.67
2023-05-15T04:16:15.089Z,100637.08
2023-05-15T04:17:15.462Z,100638.09
2023-05-15T04:18:15.793Z,100638.5
2023-05-15T04:19:16.421Z,100642.48
2023-05-15T04:20:18.158Z,100640.92
2023-05-15T04:21:17.136Z,100637.55
2023-05-15T04:22:17.443Z,100640.84
2023-05-15T04:23:17.816Z,100638.81
2023-05-15T04:24:18.394Z,100640.69
2023-05-15T04:25:18.906Z,100638.28
2023-05-15T04:26:19.210Z,100639.52
2023-05-15T04:27:19.539Z,100639.23
2023-05-15T04:28:19.944Z,100637.74
2023-05-15T04:29:21.080Z,100637.83
2023-05-15T04:30:21.093Z,100639.77
2023-05-15T04:31:21.226Z,100640.59
2023-05-15T04:32:21.512Z,100639.33
2023-05-15T04:33:22.657Z,100639.48
2023-05-15T04:34:23.056Z,100642.17
2023-05-15T04:35:23.834Z,100637.59
2023-05-15T04:36:23.722Z,100638.75
2023-05-15T04:37:24.199Z,100637.77
2023-05-15T04:38:24.784Z,100638.84
2023-05-15T04:39:24.908Z,100637.67
2023-05-15T04:40:25.750Z,100640.75
2023-05-15T04:41:25.974Z,100640.17
2023-05-15T04:42:26.384Z,100640.29
2023-05-15T04:43:26.802Z,100640.66
2023-05-15T04:44:27.217Z,100641.16
2023-05-15T04:45:27.636Z,100638.08
2023-05-15T04:46:28.017Z,100637.55
2023-05-15T04:47:28.553Z,100636.15
2023-05-15T04:48:28.801Z,100639.37
2023-05-15T04:49:29.268Z,100637.63
2023-05-15T04:50:29.757Z,100643.2
2023-05-15T04:51:30.141Z,100640.75
2023-05-15T04:52:30.555Z,100637
2023-05-15T04:53:30.963Z,100637.4
2023-05-15T04:54:31.371Z,100641.79
2023-05-15T04:55:33.038Z,100636.95
2023-05-15T04:56:32.366Z,100642.38
2023-05-15T04:57:32.741Z,100636.81
2023-05-15T04:58:33.099Z,100642.57
2023-05-15T04:59:33.662Z,100642.35
2023-05-15T05:00:34.097Z,100643.75
2023-05-15T05:01:35.072Z,100640.2
2023-05-15T05:02:35.502Z,100641.16
2023-05-15T05:03:35.875Z,100643.16
2023-05-15T05:04:36.268Z,100640.49
2023-05-15T05:05:36.717Z,100640.97
2023-05-15T05:06:37.308Z,100639.7
2023-05-15T05:07:37.552Z,100637.28
2023-05-15T05:08:37.987Z,100637.71
2023-05-15T05:09:39.582Z,100639.39
2023-05-15T05:10:39.038Z,100641.45
2023-05-15T05:11:40.097Z,100640.74
2023-05-15T05:12:39.902Z,100637.23
2023-05-15T05:13:40.122Z,100635.06
2023-05-15T05:14:40.509Z,100637.35
2023-05-15T05:15:41.078Z,100632.97
2023-05-15T05:16:42.436Z,100633.55
2023-05-15T05:17:41.998Z,100630.56
2023-05-15T05:18:42.400Z,100632.52
2023-05-15T05:19:42.808Z,100637.17
2023-05-15T05:20:43.276Z,100635.58
2023-05-15T05:21:43.642Z,100636.16
2023-05-15T05:22:44.267Z,100631.89
2023-05-15T05:23:44.577Z,100631.88
2023-05-15T05:24:45.057Z,100633.63
2023-05-15T05:25:45.408Z,100635.02
2023-05-15T05:26:46.038Z,100633.2
2023-05-15T05:27:46.324Z,100631.65
2023-05-15T05:28:46.764Z,100630.62
2023-05-15T05:29:47.746Z,100627.25
2023-05-15T05:30:48.489Z,100628.59
2023-05-15T05:31:48.176Z,100631.95
2023-05-15T05:32:48.583Z,100631.33
2023-05-15T05:33:49.050Z,100630.61
2023-05-15T05:34:49.461Z,100630.42
2023-05-15T05:35:49.901Z,100634.3
2023-05-15T05:36:50.906Z,100635.97
2023-05-15T05:37:51.401Z,100635.69
2023-05-15T05:38:51.860Z,100636.03
2023-05-15T05:39:52.175Z,100634.38
2023-05-15T05:40:52.792Z,100635.2
2023-05-15T05:41:53.313Z,100636.05
2023-05-15T05:42:53.478Z,100630.16
2023-05-15T05:43:54.116Z,100631
2023-05-15T05:44:54.429Z,100630.7
2023-05-15T05:45:55.168Z,100628.56
2023-05-15T05:46:55.391Z,100627.87
2023-05-15T05:47:56.967Z,100628.24
2023-05-15T05:48:56.441Z,100627.94
2023-05-15T05:49:56.954Z,100626.48
2023-05-15T05:50:57.782Z,100624.84
2023-05-15T05:53:01.966Z,100624.12
2023-05-15T05:54:02.443Z,100623.4
2023-05-15T05:55:03.016Z,100623.24
2023-05-15T05:56:03.458Z,100626.95
2023-05-15T05:57:04.563Z,100623.61
2023-05-15T05:58:08.561Z,100621.08
2023-05-15T05:59:07.146Z,100616.53
2023-05-15T06:00:08.521Z,100614.53
2023-05-15T06:01:07.981Z,100617.34
2023-05-15T06:02:08.927Z,100614.27
2023-05-15T06:03:09.172Z,100615.84
2023-05-15T06:04:09.588Z,100612.95
2023-05-15T06:05:10.048Z,100615.97
2023-05-15T06:06:10.483Z,100617.38
2023-05-15T06:07:11.080Z,100609.77
2023-05-15T06:08:11.290Z,100610.81
2023-05-15T06:09:11.721Z,100610.43
2023-05-15T06:10:12.238Z,100611.83
2023-05-15T06:11:12.659Z,100610.98
2023-05-15T06:12:13.060Z,100612.84
2023-05-15T06:13:13.513Z,100613.09
2023-05-15T06:14:14.014Z,100611.91
2023-05-15T06:15:15.951Z,100612.78
2023-05-15T06:16:15.141Z,100614.96
2023-05-15T06:17:15.445Z,100608.25
2023-05-15T06:18:15.861Z,100607.67
2023-05-15T06:19:16.447Z,100606.84
2023-05-15T06:20:16.994Z,100601.28
2023-05-15T06:21:17.321Z,100602.61
2023-05-15T06:22:17.694Z,100596.64
2023-05-15T06:23:18.259Z,100598.34
2023-05-15T06:24:18.769Z,100599.11
2023-05-15T06:25:19.387Z,100597.09
2023-05-15T06:26:19.792Z,100598.27
2023-05-15T06:27:20.078Z,100594.89
2023-05-15T06:28:20.516Z,100599.38
2023-05-15T06:29:21.167Z,100595.57
2023-05-15T06:30:21.768Z,100599.23
2023-05-15T06:31:22.225Z,100598.84
2023-05-15T06:32:22.468Z,100600.09
2023-05-15T06:33:22.931Z,100598.41
2023-05-15T06:34:23.352Z,100599.47
2023-05-15T06:35:23.797Z,100596.42
2023-05-15T06:36:24.276Z,100597.84
2023-05-15T06:37:24.546Z,100595.88
2023-05-15T06:38:25.116Z,100593.07
2023-05-15T06:39:25.399Z,100596.39
2023-05-15T06:40:26.911Z,100601.46
2023-05-15T06:41:26.869Z,100593.51
2023-05-15T06:42:27.381Z,100593.38
2023-05-15T06:43:27.653Z,100591.48
2023-05-15T06:44:28.656Z,100589.68
2023-05-15T06:45:28.553Z,100588.67
2023-05-15T06:46:28.699Z,100589.66
2023-05-15T06:47:29.137Z,100585.6
2023-05-15T06:48:29.477Z,100587
2023-05-15T06:49:29.916Z,100588.47
2023-05-15T06:50:30.224Z,100587.58
2023-05-15T06:51:31.022Z,100588.81
2023-05-15T06:52:31.155Z,100588.91
2023-05-15T06:53:31.409Z,100587.52
2023-05-15T06:54:31.771Z,100590.54
2023-05-15T06:55:32.385Z,100590.81
2023-05-15T06:56:32.595Z,100587.61
2023-05-15T06:57:34.052Z,100587.41
2023-05-15T06:58:33.328Z,100583.88
2023-05-15T06:59:33.696Z,100587.73
2023-05-15T07:00:34.091Z,100588.2
2023-05-15T07:01:34.785Z,100583.55
2023-05-15T07:02:34.830Z,100584.19
2023-05-15T07:03:35.219Z,100583.98
2023-05-15T07:04:35.783Z,100583.72
2023-05-15T07:05:35.940Z,100579.59
2023-05-15T07:06:37.396Z,100581.03
2023-05-15T07:07:36.787Z,100579.59
2023-05-15T07:08:37.194Z,100576.61
2023-05-15T07:09:37.621Z,100581.09
2023-05-15T07:10:38.053Z,100577.98
2023-05-15T07:11:38.334Z,100578.52
2023-05-15T07:12:38.851Z,100579.83
2023-05-15T07:13:39.257Z,100579.23
2023-05-15T07:14:39.424Z,100578.98
2023-05-15T07:15:40.015Z,100581.09
2023-05-15T07:16:40.198Z,100579.88
2023-05-15T07:17:40.606Z,100579.98
2023-05-15T07:18:40.889Z,100579.33
2023-05-15T07:19:41.354Z,100579.23
2023-05-15T07:20:41.631Z,100577.64
2023-05-15T07:21:42.080Z,100576.28
2023-05-15T07:22:52.340Z,100577.75
2023-05-15T07:23:43.574Z,100576.12
2023-05-15T07:24:44.145Z,100576.44
2023-05-15T07:25:45.912Z,100577.12
2023-05-15T07:26:57.390Z,100581.92
2023-05-15T07:27:46.009Z,100578.52
2023-05-15T07:28:46.648Z,100576.91
2023-05-15T07:29:46.758Z,100579.17
2023-05-15T07:30:48.374Z,100575.36
2023-05-15T07:31:47.867Z,100567.94
2023-05-15T07:32:47.951Z,100567.61
2023-05-15T07:33:48.304Z,100569.78
2023-05-15T07:34:48.734Z,100570.45
2023-05-15T07:35:50.994Z,100571.36
2023-05-15T07:36:49.500Z,100571.27
2023-05-15T07:37:50.045Z,100565.42
2023-05-15T07:38:50.295Z,100561.69
2023-05-15T07:39:50.731Z,100561.75
2023-05-15T07:40:51.138Z,100568.04
2023-05-15T07:41:51.760Z,100561.61
2023-05-15T07:42:51.841Z,100562.91
2023-05-15T07:43:52.277Z,100560.14
2023-05-15T07:44:52.818Z,100562.03
2023-05-15T07:45:53.255Z,100559.27
2023-05-15T07:46:55.281Z,100560.35
2023-05-15T07:47:53.863Z,100557.09
2023-05-15T07:48:54.234Z,100561.85
2023-05-15T07:49:54.622Z,100564.16
2023-05-15T07:50:55.177Z,100562.11
2023-05-15T07:51:55.667Z,100560.67
2023-05-15T07:52:55.752Z,100556.3
2023-05-15T07:53:56.050Z,100561.61
2023-05-15T07:54:56.762Z,100555.19
2023-05-15T07:55:57.055Z,100557.14
2023-05-15T07:56:57.575Z,100558.17
2023-05-15T07:57:57.988Z,100553.08
2023-05-15T07:58:58.350Z,100552.98
2023-05-15T07:59:58.835Z,100558.23
2023-05-15T08:00:59.040Z,100551.51
2023-05-15T08:01:59.566Z,100553.91
2023-05-15T08:03:00.544Z,100552.19
2023-05-15T08:04:00.579Z,100552
2023-05-15T08:05:00.789Z,100551.88
2023-05-15T08:06:01.238Z,100554.18
2023-05-15T08:07:01.668Z,100556.31
2023-05-15T08:08:02.042Z,100552.64
2023-05-15T08:09:02.318Z,100547.83
2023-05-15T08:10:02.791Z,100549.47
2023-05-15T08:11:03.103Z,100545.37
2023-05-15T08:13:07.412Z,100543.78
2023-05-15T08:14:07.967Z,100539.78
2023-05-15T08:15:09.332Z,100544.82
2023-05-15T08:16:08.716Z,100543.61
2023-05-15T08:17:09.070Z,100544.44
2023-05-15T08:18:10.028Z,100544.67
2023-05-15T08:19:10.064Z,100540.08
2023-05-15T08:20:11.156Z,100542.39
2023-05-15T08:21:10.754Z,100540.9
2023-05-15T08:22:11.066Z,100543.28
2023-05-15T08:23:14.120Z,100542.58
2023-05-15T08:24:11.847Z,100544.41
2023-05-15T08:25:12.399Z,100542.08
2023-05-15T08:26:12.828Z,100542.19
2023-05-15T08:27:13.646Z,100534.71
2023-05-15T08:28:13.535Z,100533.77
2023-05-15T08:29:13.961Z,100538.59
2023-05-15T08:30:14.832Z,100532.18
2023-05-15T08:31:15.040Z,100532.36
2023-05-15T08:32:15.201Z,100526.85
2023-05-15T08:33:16.132Z,100527.78
2023-05-15T08:34:16.044Z,100532.38
2023-05-15T08:35:16.679Z,100526.27
2023-05-15T08:36:16.922Z,100526.95
2023-05-15T08:37:17.193Z,100529.75
2023-05-15T08:38:17.835Z,100532.82
2023-05-15T08:39:18.228Z,100526.56
2023-05-15T08:40:21.334Z,100526.08
2023-05-15T08:41:40.639Z,100524.2
2023-05-15T08:43:27.103Z,100517.14
2023-05-15T08:44:27.799Z,100520.28
2023-05-15T08:45:28.248Z,100518.81
2023-05-15T08:46:28.643Z,100518.46
2023-05-15T08:47:35.509Z,100521.03
2023-05-15T08:48:38.961Z,100519.58
2023-05-15T08:50:39.195Z,100518.89
2023-05-15T08:51:38.190Z,100519.86
2023-05-15T08:52:38.755Z,100515.91
2023-05-15T08:53:38.607Z,100515.88
2023-05-15T08:54:40.756Z,100510.52
2023-05-15T08:55:39.495Z,100513.03
2023-05-15T08:56:39.636Z,100510.11
2023-05-15T08:57:40.670Z,100512.95
2023-05-15T08:58:40.345Z,100511.83
2023-05-15T08:59:40.682Z,100507.62
2023-05-15T09:00:41.204Z,100513.27
2023-05-15T09:01:41.581Z,100506.02
2023-05-15T09:02:42.320Z,100505.92
2023-05-15T09:03:42.293Z,100500.57
2023-05-15T09:04:42.673Z,100506.86
2023-05-15T09:05:43.491Z,100502.95
2023-05-15T09:06:44.409Z,100504.99
2023-05-15T09:07:45.616Z,100506.21
2023-05-15T09:08:44.761Z,100500.49
2023-05-15T09:09:48.018Z,100500.86
2023-05-15T09:10:46.104Z,100501.77
2023-05-15T09:11:48.305Z,100499.62
2023-05-15T09:12:46.345Z,100504.95
2023-05-15T09:13:46.713Z,100502.58
2023-05-15T09:14:47.128Z,100499.41
2023-05-15T09:15:47.657Z,100493.95
2023-05-15T09:16:49.595Z,100498.44
2023-05-15T09:17:50.401Z,100494.18
2023-05-15T09:18:50.171Z,100496.06
2023-05-15T09:19:49.371Z,100496
2023-05-15T09:20:49.518Z,100500.91
2023-05-15T09:21:49.980Z,100495.41
2023-05-15T09:22:50.421Z,100499.11
2023-05-15T09:23:50.815Z,100495.91
2023-05-15T09:24:52.331Z,100499.8
2023-05-15T09:25:51.937Z,100501.33
2023-05-15T09:27:52.235Z,100496.8
2023-05-15T09:29:02.227Z,100491.02
2023-05-15T09:29:54.911Z,100496.13
2023-05-15T09:31:05.579Z,100492.2
2023-05-15T09:33:02.482Z,100495.39
2023-05-15T09:34:02.426Z,100486.9
2023-05-15T09:35:01.298Z,100486.53
2023-05-15T09:36:03.039Z,100489.16
2023-05-15T09:37:04.068Z,100491.84
2023-05-15T09:38:03.971Z,100488.44
2023-05-15T09:39:02.766Z,100484.81
2023-05-15T09:40:10.645Z,100488.53
2023-05-15T09:41:05.435Z,100482.55
2023-05-15T09:42:11.700Z,100484.63
2023-05-15T09:43:04.217Z,100491.59
2023-05-15T09:44:05.263Z,100488.84
2023-05-15T09:45:05.963Z,100482.02
2023-05-15T09:46:06.087Z,100481.95
2023-05-15T09:47:06.296Z,100490.81
2023-05-15T09:48:07.359Z,100477.72
2023-05-15T09:49:06.412Z,100482.45
2023-05-15T09:50:10.438Z,100482.47
2023-05-15T09:51:15.536Z,100486.02
2023-05-15T09:52:15.772Z,100486.1
2023-05-15T09:53:13.566Z,100476.88
2023-05-15T09:54:18.715Z,100476.91
2023-05-15T09:55:16.708Z,100478.65
2023-05-15T09:56:17.195Z,100473.12
2023-05-15T09:57:16.718Z,100474.45
2023-05-15T09:58:18.597Z,100473.75
2023-05-15T09:59:19.607Z,100471.45
2023-05-15T10:00:20.093Z,100475.28
2023-05-15T10:01:20.468Z,100466.23
2023-05-15T10:02:25.792Z,100478.56
2023-05-15T10:03:23.198Z,100475.41
2023-05-15T10:04:23.457Z,100470.64
2023-05-15T10:05:39.244Z,100470.7
2023-05-15T10:06:25.264Z,100472.38
2023-05-15T10:08:29.596Z,100471.79
2023-05-15T10:09:32.852Z,100468.47
2023-05-15T10:10:31.428Z,100467.55
2023-05-15T10:11:32.574Z,100465.86
2023-05-15T10:12:31.469Z,100468.64
2023-05-15T10:13:34.564Z,100466.25
2023-05-15T10:14:32.554Z,100460.78
2023-05-15T10:15:33.273Z,100458.53
2023-05-15T10:16:35.519Z,100461.76
2023-05-15T10:17:35.348Z,100457.91
2023-05-15T10:18:36.063Z,100461.48
2023-05-15T10:19:34.740Z,100462.73
2023-05-15T10:20:35.602Z,100457.92
2023-05-15T10:21:38.556Z,100452.47
2023-05-15T10:22:38.410Z,100459.23
2023-05-15T10:23:37.478Z,100456.95
2023-05-15T10:24:40.434Z,100457.86
2023-05-15T10:27:41.796Z,100457.47
2023-05-15T10:28:44.714Z,100450.42
2023-05-15T10:29:42.816Z,100452.69
2023-05-15T10:30:43.358Z,100451.55
2023-05-15T10:31:43.335Z,100452.75
2023-05-15T10:32:45.399Z,100448.84
2023-05-15T10:33:44.475Z,100448.22
2023-05-15T10:34:45.713Z,100446.8
2023-05-15T10:35:46.094Z,100447.09
2023-05-15T10:36:45.561Z,100443.5
2023-05-15T10:37:47.692Z,100439.05
2023-05-15T10:38:48.022Z,100438.34
2023-05-15T10:39:47.439Z,100435.81
2023-05-15T10:40:46.688Z,100432.95
2023-05-15T10:41:46.846Z,100437.5
2023-05-15T10:42:47.637Z,100439.25
2023-05-15T10:43:48.843Z,100434.56
2023-05-15T10:44:48.258Z,100436.53
2023-05-15T10:45:48.267Z,100433.09
2023-05-15T10:46:48.900Z,100441.11
2023-05-15T10:47:48.617Z,100433.17
2023-05-15T10:48:48.420Z,100434.98
2023-05-15T10:49:48.885Z,100438.44
2023-05-15T10:50:50.067Z,100432.08
2023-05-15T10:51:49.820Z,100427.49
2023-05-15T10:52:52.686Z,100421.3
2023-05-15T10:53:51.570Z,100424.28
2023-05-15T10:54:52.701Z,100419
2023-05-15T10:55:50.965Z,100423.83
2023-05-15T10:56:52.443Z,100425.12
2023-05-15T10:57:51.392Z,100424.03
2023-05-15T10:58:52.059Z,100422.54
2023-05-15T10:59:52.043Z,100416.55
2023-05-15T11:00:52.485Z,100413.17
2023-05-15T11:01:52.878Z,100410.7
2023-05-15T11:02:54.041Z,100407.21
2023-05-15T11:05:02.106Z,100400.05
2023-05-15T11:12:20.875Z,100399.17
2023-05-15T11:13:20.982Z,100403.59
2023-05-15T11:14:25.149Z,100400.55
2023-05-15T11:15:22.793Z,100399.54
2023-05-15T11:17:24.933Z,100401.08
2023-05-15T11:18:26.091Z,100400.62
2023-05-15T11:21:32.111Z,100390.09
2023-05-15T11:22:35.281Z,100399.23
2023-05-15T11:23:40.140Z,100402.72
2023-05-15T11:25:40.769Z,100396.34
2023-05-15T11:26:43.808Z,100392.78
2023-05-15T11:28:43.525Z,100395.72
2023-05-15T11:30:52.198Z,100396.11
2023-05-15T11:31:49.779Z,100394.27
2023-05-15T11:33:52.752Z,100388.22
2023-05-15T11:34:53.189Z,100386.75
2023-05-15T11:36:00.329Z,100386.48
2023-05-15T11:36:59.225Z,100388.81
2023-05-15T11:38:00.174Z,100390.41
2023-05-15T11:39:00.178Z,100382.62
2023-05-15T11:39:58.741Z,100385.8
2023-05-15T11:41:03.015Z,100382.11
2023-05-15T11:44:04.050Z,100380.92
2023-05-15T11:45:05.802Z,100379.82
2023-05-15T11:46:08.794Z,100376.45
2023-05-15T11:49:13.127Z,100375.94
2023-05-15T11:50:13.155Z,100373.36
2023-05-15T11:52:13.761Z,100369.88
2023-05-15T11:53:14.795Z,100372.52
2023-05-15T11:54:15.534Z,100374.89
2023-05-15T11:55:16.146Z,100370.88
2023-05-15T11:57:20.158Z,100370.66
2023-05-15T11:58:19.651Z,100372.02
2023-05-15T11:59:21.393Z,100371.39
2023-05-15T12:00:19.125Z,100373.44
2023-05-15T12:01:19.103Z,100371.95
2023-05-15T12:02:20.258Z,100365.2
2023-05-15T12:04:24.796Z,100364.44
2023-05-15T12:05:24.901Z,100366.16
2023-05-15T12:06:26.719Z,100355.47
2023-05-15T12:07:25.804Z,100359.22
2023-05-15T12:08:26.705Z,100357.52
2023-05-15T12:09:26.312Z,100358.42
2023-05-15T12:10:26.979Z,100357.02
2023-05-15T12:11:26.909Z,100360.31
2023-05-15T12:12:28.283Z,100359.41
2023-05-15T12:13:27.844Z,100354.95
2023-05-15T12:14:31.376Z,100355.06
2023-05-15T12:15:28.918Z,100356.44
2023-05-15T12:16:29.257Z,100361.83
2023-05-15T12:17:32.147Z,100357.42
2023-05-15T12:18:33.492Z,100358.34
2023-05-15T12:19:31.505Z,100358.44
2023-05-15T12:20:34.682Z,100354.52
2023-05-15T12:21:32.237Z,100349.65
2023-05-15T12:23:36.337Z,100356.05
2023-05-15T12:24:38.513Z,100353.31
2023-05-15T12:25:37.381Z,100345.66
2023-05-15T12:26:37.796Z,100341.77
2023-05-15T12:27:39.347Z,100341.14
2023-05-15T12:28:38.833Z,100332.97
2023-05-15T12:29:39.351Z,100333.3
2023-05-15T12:30:40.142Z,100331.91
2023-05-15T12:31:39.394Z,100340.89
2023-05-15T12:32:40.192Z,100336.28
2023-05-15T12:33:40.092Z,100331.53
2023-05-15T12:34:40.197Z,100329.26